createdAt,value
2019-05-23T00:03:18.153Z,11.39
2019-05-23T00:08:23.550Z,11.33
2019-05-23T00:13:28.275Z,11.23
2019-05-23T00:18:32.808Z,11.34
2019-05-23T00:23:37.432Z,11.33
2019-05-23T00:28:41.711Z,11.30
2019-05-23T00:33:46.315Z,11.21
2019-05-23T00:38:50.820Z,11.18
2019-05-23T00:43:55.028Z,11.17
2019-05-23T00:48:59.668Z,11.06
2019-05-23T00:54:04.011Z,11.07
2019-05-23T00:59:08.104Z,11.01
2019-05-23T01:04:12.243Z,10.86
2019-05-23T01:09:18.795Z,10.83
2019-05-23T01:14:22.818Z,10.78
2019-05-23T01:19:27.371Z,10.75
2019-05-23T01:24:32.173Z,10.66
2019-05-23T01:29:38.653Z,10.60
2019-05-23T01:34:42.749Z,10.54
2019-05-23T01:39:46.894Z,10.50
2019-05-23T01:44:51.031Z,10.36
2019-05-23T01:49:55.467Z,10.17
2019-05-23T01:55:00.108Z,10.17
2019-05-23T02:00:10.714Z,10.12
2019-05-23T02:05:13.077Z,10.04
2019-05-23T02:10:17.766Z,10.04
2019-05-23T02:15:21.895Z,10.01
2019-05-23T02:20:26.593Z,10.07
2019-05-23T02:25:30.587Z,9.89
2019-05-23T02:30:36.340Z,9.82
2019-05-23T02:35:40.791Z,9.66
2019-05-23T02:40:44.969Z,9.58
2019-05-23T02:45:50.589Z,9.23
2019-05-23T02:50:59.073Z,9.00
2019-05-23T02:56:06.392Z,8.74
2019-05-23T03:01:31.686Z,8.59
2019-05-23T03:06:35.681Z,8.42
2019-05-23T03:11:42.354Z,8.23
2019-05-23T03:16:48.526Z,8.17
2019-05-23T03:21:54.980Z,8.07
2019-05-23T03:27:02.711Z,8.00
2019-05-23T03:32:06.743Z,8.00
2019-05-23T03:37:10.799Z,7.99
2019-05-23T03:42:15.053Z,8.05
2019-05-23T03:47:20.176Z,8.09
2019-05-23T03:52:24.513Z,8.17
2019-05-23T03:57:28.545Z,8.20
2019-05-23T04:02:33.230Z,8.05
2019-05-23T04:07:37.961Z,7.89
2019-05-23T04:12:42.493Z,7.98
2019-05-23T04:17:46.776Z,8.12
2019-05-23T04:22:50.873Z,8.35
2019-05-23T04:27:54.935Z,11.89
2019-05-23T04:32:59.565Z,11.89
2019-05-23T04:38:03.611Z,16.86
2019-05-23T04:43:08.017Z,19.24
2019-05-23T04:48:12.562Z,20.29
2019-05-23T04:53:16.867Z,21.67
2019-05-23T04:58:20.955Z,22.03
2019-05-23T05:03:25.708Z,23.37
2019-05-23T05:08:29.861Z,22.97
2019-05-23T05:13:34.157Z,24.01
2019-05-23T05:18:38.413Z,25.02
2019-05-23T05:23:43.343Z,26.19
2019-05-23T05:28:47.576Z,27.13
2019-05-23T05:33:51.910Z,26.04
2019-05-23T05:38:55.987Z,27.25
2019-05-23T05:44:00.418Z,27.42
2019-05-23T05:49:04.661Z,29.58
2019-05-23T05:54:09.261Z,29.10
2019-05-23T05:59:16.043Z,27.48
2019-05-23T06:04:20.275Z,28.55
2019-05-23T06:09:24.436Z,24.75
2019-05-23T06:14:28.724Z,25.20
2019-05-23T06:19:32.874Z,24.23
2019-05-23T06:24:46.812Z,27.10
2019-05-23T06:29:42.793Z,26.11
2019-05-23T06:34:48.491Z,25.59
2019-05-23T06:39:54.518Z,21.31
2019-05-23T06:44:58.629Z,21.09
2019-05-23T06:50:04.207Z,23.19
2019-05-23T06:55:08.997Z,20.76
2019-05-23T07:00:14.846Z,20.97
2019-05-23T07:05:22.122Z,19.75
2019-05-23T07:10:27.080Z,19.90
2019-05-23T07:15:31.116Z,23.90
2019-05-23T07:20:35.217Z,22.67
2019-05-23T07:25:39.323Z,21.70
2019-05-23T07:30:43.977Z,22.72
2019-05-23T07:35:48.077Z,24.82
2019-05-23T07:40:52.431Z,23.01
2019-05-23T07:45:56.605Z,25.16
2019-05-23T07:51:01.093Z,25.79
2019-05-23T07:56:06.615Z,26.57
2019-05-23T08:01:10.757Z,27.11
2019-05-23T08:06:14.952Z,23.89
2019-05-23T08:11:19.035Z,25.69
2019-05-23T08:16:23.046Z,25.43
2019-05-23T08:21:27.508Z,27.63
2019-05-23T08:26:31.783Z,27.50
2019-05-23T08:31:35.858Z,24.37
2019-05-23T08:36:39.943Z,24.15
2019-05-23T08:41:44.260Z,25.59
2019-05-23T08:46:48.586Z,24.79
2019-05-23T08:51:52.654Z,23.62
2019-05-23T08:56:56.990Z,24.95
2019-05-23T09:02:01.514Z,24.34
2019-05-23T09:07:05.760Z,24.78
2019-05-23T09:12:09.760Z,26.13
2019-05-23T09:17:13.931Z,24.86
2019-05-23T09:22:18.081Z,25.25
2019-05-23T09:27:22.272Z,23.49
2019-05-23T09:32:26.610Z,23.25
2019-05-23T09:37:30.944Z,24.23
2019-05-23T09:42:34.986Z,24.03
2019-05-23T09:47:39.073Z,25.16
2019-05-23T09:52:43.066Z,23.92
2019-05-23T09:57:47.189Z,25.03
2019-05-23T10:02:51.351Z,26.01
2019-05-23T10:07:55.454Z,25.54
2019-05-23T10:12:59.617Z,25.01
2019-05-23T10:18:03.777Z,23.51
2019-05-23T10:23:07.900Z,23.28
2019-05-23T10:28:12.019Z,22.19
2019-05-23T10:33:16.454Z,22.60
2019-05-23T10:38:20.451Z,22.56
2019-05-23T10:43:24.853Z,21.48
2019-05-23T10:48:29.588Z,22.05
2019-05-23T10:53:33.864Z,21.71
2019-05-23T10:58:37.928Z,22.20
2019-05-23T11:03:42.143Z,22.25
2019-05-23T11:08:46.344Z,22.77
2019-05-23T11:13:51.643Z,22.04
2019-05-23T11:18:56.175Z,22.39
2019-05-23T11:24:00.289Z,22.56
2019-05-23T11:29:06.314Z,21.98
2019-05-23T11:34:10.609Z,21.74
2019-05-23T11:39:14.760Z,20.84
2019-05-23T11:44:18.792Z,20.88
2019-05-23T11:49:24.810Z,20.81
2019-05-23T11:54:32.245Z,20.98
2019-05-23T11:59:37.902Z,21.17
2019-05-23T12:04:42.109Z,21.10
2019-05-23T12:09:46.950Z,20.58
2019-05-23T12:14:53.462Z,20.00
2019-05-23T12:19:57.550Z,20.46
2019-05-23T12:25:20.058Z,21.83
2019-05-23T12:30:10.872Z,21.33
2019-05-23T12:35:15.494Z,21.40
2019-05-23T12:40:19.586Z,21.34
2019-05-23T12:45:23.715Z,21.48
2019-05-23T12:50:27.782Z,22.07
2019-05-23T12:55:32.203Z,21.75
2019-05-23T13:00:36.805Z,21.51
2019-05-23T13:05:41.289Z,21.49
2019-05-23T13:10:45.307Z,21.72
2019-05-23T13:15:49.700Z,22.04
2019-05-23T13:20:53.773Z,22.21
2019-05-23T13:25:58.488Z,22.45
2019-05-23T13:31:02.743Z,22.87
2019-05-23T13:36:06.914Z,22.48
2019-05-23T13:41:11.256Z,21.50
2019-05-23T13:46:15.683Z,22.01
2019-05-23T13:51:19.751Z,21.50
2019-05-23T13:56:24.427Z,22.46
2019-05-23T14:01:28.860Z,22.51
2019-05-23T14:06:32.970Z,22.21
2019-05-23T14:11:37.179Z,21.98
2019-05-23T14:16:41.726Z,22.09
2019-05-23T14:21:45.822Z,21.74
2019-05-23T14:26:50.142Z,21.63
2019-05-23T14:31:54.220Z,21.99
2019-05-23T14:36:58.277Z,22.44
2019-05-23T14:42:02.385Z,22.67
2019-05-23T14:47:07.223Z,22.07
2019-05-23T14:52:12.080Z,22.28
2019-05-23T14:57:16.687Z,22.32
2019-05-23T15:02:21.748Z,22.34
2019-05-23T15:07:26.127Z,22.34
2019-05-23T15:12:30.199Z,22.80
2019-05-23T15:17:34.285Z,22.71
2019-05-23T15:22:38.437Z,23.47
2019-05-23T15:27:42.580Z,22.72
2019-05-23T15:32:46.628Z,23.05
2019-05-23T15:37:50.774Z,22.91
2019-05-23T15:42:54.846Z,22.79
2019-05-23T15:47:59.198Z,22.08
2019-05-23T15:53:03.449Z,21.95
2019-05-23T15:58:07.615Z,22.86
2019-05-23T16:03:13.851Z,22.95
2019-05-23T16:08:17.677Z,22.06
2019-05-23T16:13:21.654Z,22.53
2019-05-23T16:18:25.768Z,23.15
2019-05-23T16:23:29.989Z,22.43
2019-05-23T16:28:34.078Z,22.34
2019-05-23T16:33:38.067Z,22.29
2019-05-23T16:38:42.396Z,22.53
2019-05-23T16:43:46.433Z,22.53
2019-05-23T16:48:50.995Z,22.54
2019-05-23T16:53:55.376Z,21.77
2019-05-23T16:59:03.174Z,21.51
2019-05-23T17:04:05.709Z,21.92
2019-05-23T17:09:10.394Z,21.58
2019-05-23T17:14:14.638Z,21.58
2019-05-23T17:19:18.616Z,21.55
2019-05-23T17:24:22.734Z,21.07
2019-05-23T17:29:27.227Z,21.04
2019-05-23T17:34:31.829Z,20.97
2019-05-23T17:39:35.953Z,20.47
2019-05-23T17:44:40.025Z,19.99
2019-05-23T17:49:44.703Z,19.65
2019-05-23T17:54:49.437Z,19.34
2019-05-23T17:59:53.685Z,19.00
2019-05-23T18:04:59.641Z,18.80
2019-05-23T18:10:04.122Z,18.58
2019-05-23T18:15:09.394Z,18.40
2019-05-23T18:20:14.767Z,18.31
2019-05-23T18:25:20.164Z,18.25
2019-05-23T18:30:26.449Z,18.01
2019-05-23T18:35:31.424Z,17.73
2019-05-23T18:40:35.612Z,17.53
2019-05-23T18:45:39.972Z,17.30
2019-05-23T18:50:44.660Z,17.00
2019-05-23T18:55:48.743Z,16.73
2019-05-23T19:01:02.409Z,16.57
2019-05-23T19:06:06.500Z,16.22
2019-05-23T19:11:20.925Z,15.95
2019-05-23T19:16:19.656Z,15.73
2019-05-23T19:21:25.485Z,15.51
2019-05-23T19:26:30.598Z,15.27
2019-05-23T19:31:36.960Z,15.05
2019-05-23T19:36:43.071Z,14.76
2019-05-23T19:41:48.268Z,14.49
2019-05-23T19:46:52.881Z,14.25
2019-05-23T19:51:57.155Z,14.02
2019-05-23T19:57:01.198Z,13.70
2019-05-23T20:02:05.931Z,13.48
2019-05-23T20:07:10.358Z,13.23
2019-05-23T20:12:15.277Z,13.09
2019-05-23T20:17:19.684Z,12.90
2019-05-23T20:22:23.715Z,12.68
2019-05-23T20:27:28.241Z,12.42
2019-05-23T20:32:32.935Z,12.32
2019-05-23T20:37:37.122Z,12.35
2019-05-23T20:42:41.177Z,12.17
2019-05-23T20:47:45.695Z,12.05
2019-05-23T20:52:51.434Z,11.89
2019-05-23T20:57:55.502Z,11.81
2019-05-23T21:02:59.639Z,11.71
2019-05-23T21:08:03.710Z,11.52
2019-05-23T21:13:07.822Z,11.47
2019-05-23T21:18:12.030Z,11.39
2019-05-23T21:23:16.097Z,11.28
2019-05-23T21:28:20.198Z,11.02
2019-05-23T21:33:24.456Z,10.79
2019-05-23T21:38:28.778Z,10.60
2019-05-23T21:43:32.937Z,10.42
2019-05-23T21:48:37.195Z,10.37
2019-05-23T21:53:41.338Z,10.23
2019-05-23T21:58:45.499Z,10.16
2019-05-23T22:03:49.839Z,9.92
2019-05-23T22:08:53.892Z,9.72
2019-05-23T22:13:57.972Z,9.69
2019-05-23T22:19:02.507Z,9.52
2019-05-23T22:24:06.523Z,9.40
2019-05-23T22:29:10.656Z,9.28
2019-05-23T22:34:14.890Z,9.18
2019-05-23T22:39:18.915Z,9.09
2019-05-23T22:44:23.095Z,9.01
2019-05-23T22:49:27.175Z,8.88
2019-05-23T22:54:31.555Z,8.76
2019-05-23T22:59:35.691Z,8.66
2019-05-23T23:04:39.714Z,8.65
2019-05-23T23:09:44.194Z,8.50
2019-05-23T23:14:48.359Z,8.51
2019-05-23T23:19:52.398Z,8.51
2019-05-23T23:24:56.596Z,8.42
2019-05-23T23:30:00.676Z,8.33
2019-05-23T23:35:04.823Z,8.19
2019-05-23T23:40:09.112Z,8.09
2019-05-23T23:45:13.491Z,8.04
2019-05-23T23:50:18.874Z,7.96
2019-05-23T23:55:22.947Z,7.90
